createdAt,value
2023-05-08T00:00:23.894Z,12.802
2023-05-08T00:01:23.099Z,12.722
2023-05-08T00:02:23.544Z,12.762
2023-05-08T00:03:23.406Z,12.724
2023-05-08T00:04:23.700Z,12.674
2023-05-08T00:05:23.166Z,12.644
2023-05-08T00:06:23.315Z,12.618
2023-05-08T00:07:23.559Z,12.623
2023-05-08T00:08:22.789Z,12.556
2023-05-08T00:09:23.007Z,12.554
2023-05-08T00:10:23.621Z,12.524
2023-05-08T00:11:22.763Z,12.532
2023-05-08T00:12:23.284Z,12.546
2023-05-08T00:13:24.188Z,12.551
2023-05-08T00:14:23.607Z,12.567
2023-05-08T00:16:23.299Z,12.495
2023-05-08T00:17:22.792Z,12.476
2023-05-08T00:18:23.069Z,12.423
2023-05-08T00:19:23.562Z,12.412
2023-05-08T00:20:22.760Z,12.460
2023-05-08T00:21:22.925Z,12.444
2023-05-08T00:22:23.160Z,12.415
2023-05-08T00:23:23.385Z,12.436
2023-05-08T00:24:23.626Z,12.444
2023-05-08T00:25:22.812Z,12.436
2023-05-08T00:26:23.053Z,12.425
2023-05-08T00:27:23.276Z,12.409
2023-05-08T00:28:23.469Z,12.369
2023-05-08T00:29:23.705Z,12.335
2023-05-08T00:30:22.908Z,12.380
2023-05-08T00:31:23.139Z,12.329
2023-05-08T00:32:24.491Z,12.305
2023-05-08T00:33:23.294Z,12.252
2023-05-08T00:34:23.794Z,12.241
2023-05-08T00:35:23.262Z,12.241
2023-05-08T00:36:23.471Z,12.217
2023-05-08T00:37:23.597Z,12.204
2023-05-08T00:38:22.722Z,12.204
2023-05-08T00:39:23.013Z,12.172
2023-05-08T00:40:23.678Z,12.166
2023-05-08T00:41:22.904Z,12.065
2023-05-08T00:42:23.104Z,12.068
2023-05-08T00:43:23.284Z,12.052
2023-05-08T00:44:23.539Z,12.017
2023-05-08T00:45:22.755Z,12.030
2023-05-08T00:46:23.372Z,11.987
2023-05-08T00:48:23.393Z,11.947
2023-05-08T00:49:23.711Z,11.939
2023-05-08T00:51:23.143Z,11.902
2023-05-08T00:52:23.336Z,11.899
2023-05-08T00:53:23.593Z,11.990
2023-05-08T00:54:22.750Z,11.942
2023-05-08T00:55:22.978Z,11.942
2023-05-08T00:56:23.355Z,11.934
2023-05-08T00:57:23.531Z,11.899
2023-05-08T00:58:22.728Z,11.857
2023-05-08T00:59:23.264Z,11.851
2023-05-08T01:00:23.916Z,11.835
2023-05-08T01:01:23.309Z,11.793
2023-05-08T01:02:23.000Z,11.859
2023-05-08T01:03:24.197Z,11.785
2023-05-08T01:04:23.077Z,11.750
2023-05-08T01:05:23.295Z,11.774
2023-05-08T01:06:23.598Z,11.736
2023-05-08T01:07:22.812Z,11.736
2023-05-08T01:08:23.013Z,11.766
2023-05-08T01:09:23.177Z,11.726
2023-05-08T01:10:23.961Z,11.718
2023-05-08T01:11:23.124Z,11.672
2023-05-08T01:12:23.253Z,11.654
2023-05-08T01:13:23.908Z,11.654
2023-05-08T01:14:23.170Z,11.584
2023-05-08T01:15:23.405Z,11.627
2023-05-08T01:16:24.013Z,11.614
2023-05-08T01:17:23.670Z,11.552
2023-05-08T01:18:23.241Z,11.558
2023-05-08T01:19:23.423Z,11.547
2023-05-08T01:20:23.996Z,11.542
2023-05-08T01:21:23.194Z,11.488
2023-05-08T01:22:23.315Z,11.491
2023-05-08T01:23:23.571Z,11.427
2023-05-08T01:24:22.744Z,11.413
2023-05-08T01:26:23.192Z,11.400
2023-05-08T01:27:23.397Z,11.400
2023-05-08T01:28:23.619Z,11.387
2023-05-08T01:29:22.783Z,11.421
2023-05-08T01:30:23.370Z,11.381
2023-05-08T01:31:23.627Z,11.363
2023-05-08T01:32:22.884Z,11.424
2023-05-08T01:33:23.474Z,11.467
2023-05-08T01:34:22.966Z,11.488
2023-05-08T01:35:23.151Z,11.472
2023-05-08T01:36:23.353Z,11.469
2023-05-08T01:37:23.535Z,11.419
2023-05-08T01:38:22.770Z,11.419
2023-05-08T01:39:22.965Z,11.397
2023-05-08T01:40:23.744Z,11.440
2023-05-08T01:41:22.907Z,11.424
2023-05-08T01:42:23.130Z,11.432
2023-05-08T01:43:23.362Z,11.395
2023-05-08T01:44:23.637Z,11.392
2023-05-08T01:45:22.861Z,11.432
2023-05-08T01:46:23.275Z,11.480
2023-05-08T01:47:23.631Z,11.443
2023-05-08T01:48:23.013Z,11.445
2023-05-08T01:49:23.180Z,11.427
2023-05-08T01:50:23.884Z,11.424
2023-05-08T01:51:23.017Z,11.400
2023-05-08T01:52:23.204Z,11.392
2023-05-08T01:53:23.409Z,11.371
2023-05-08T01:54:23.655Z,11.381
2023-05-08T01:55:22.873Z,11.413
2023-05-08T01:56:23.085Z,11.373
2023-05-08T01:57:23.379Z,11.349
2023-05-08T01:58:23.609Z,11.392
2023-05-08T01:59:22.778Z,11.376
2023-05-08T02:00:23.727Z,11.413
2023-05-08T02:01:23.570Z,11.349
2023-05-08T02:02:23.172Z,11.331
2023-05-08T02:05:23.281Z,11.309
2023-05-08T02:06:23.555Z,11.304
2023-05-08T02:07:22.777Z,11.304
2023-05-08T02:08:22.966Z,11.312
2023-05-08T02:09:23.167Z,11.315
2023-05-08T02:10:23.786Z,11.237
2023-05-08T02:11:23.100Z,11.266
2023-05-08T02:12:23.291Z,11.242
2023-05-08T02:13:23.809Z,11.258
2023-05-08T02:14:23.245Z,11.242
2023-05-08T02:15:23.499Z,11.189
2023-05-08T02:16:22.884Z,11.234
2023-05-08T02:17:23.270Z,11.237
2023-05-08T02:18:23.650Z,11.221
2023-05-08T02:19:22.849Z,11.210
2023-05-08T02:20:23.285Z,11.184
2023-05-08T02:21:23.547Z,11.168
2023-05-08T02:22:22.703Z,11.192
2023-05-08T02:23:22.863Z,11.165
2023-05-08T02:24:23.049Z,11.162
2023-05-08T02:25:23.303Z,11.128
2023-05-08T02:26:23.553Z,11.154
2023-05-08T02:27:22.733Z,11.122
2023-05-08T02:28:22.909Z,11.104
2023-05-08T02:29:23.076Z,11.122
2023-05-08T02:30:23.927Z,11.082
2023-05-08T02:31:23.226Z,11.106
2023-05-08T02:32:24.230Z,11.061
2023-05-08T02:33:23.759Z,11.050
2023-05-08T02:35:23.145Z,11.002
2023-05-08T02:36:23.451Z,11.037
2023-05-08T02:37:23.674Z,11.045
2023-05-08T02:39:23.099Z,11.007
2023-05-08T02:40:23.931Z,10.965
2023-05-08T02:41:23.158Z,11.018
2023-05-08T02:42:23.457Z,11.032
2023-05-08T02:43:22.702Z,11.021
2023-05-08T02:44:22.902Z,10.975
2023-05-08T02:45:23.155Z,10.983
2023-05-08T02:46:23.796Z,11.005
2023-05-08T02:47:23.463Z,10.957
2023-05-08T02:48:23.644Z,10.949
2023-05-08T02:49:22.788Z,10.962
2023-05-08T02:50:23.269Z,10.943
2023-05-08T02:51:23.484Z,10.925
2023-05-08T02:52:23.692Z,10.927
2023-05-08T02:53:22.847Z,10.890
2023-05-08T02:54:23.129Z,10.885
2023-05-08T02:55:23.389Z,10.879
2023-05-08T02:56:23.526Z,10.861
2023-05-08T02:57:22.692Z,10.847
2023-05-08T02:58:22.954Z,10.837
2023-05-08T02:59:23.177Z,10.847
2023-05-08T03:00:23.624Z,10.933
2023-05-08T03:01:23.081Z,10.895
2023-05-08T03:02:23.869Z,10.887
2023-05-08T03:03:24.192Z,10.866
2023-05-08T03:04:23.004Z,10.895
2023-05-08T03:05:23.208Z,10.909
2023-05-08T03:06:23.479Z,10.887
2023-05-08T03:07:23.718Z,10.914
2023-05-08T03:08:22.938Z,10.895
2023-05-08T03:09:23.060Z,10.925
2023-05-08T03:10:23.574Z,10.911
2023-05-08T03:11:22.730Z,10.930
2023-05-08T03:12:22.913Z,10.959
2023-05-08T03:13:23.426Z,10.959
2023-05-08T03:14:22.828Z,10.943
2023-05-08T03:15:23.053Z,10.911
2023-05-08T03:16:23.742Z,10.919
2023-05-08T03:17:23.225Z,10.890
2023-05-08T03:18:23.637Z,10.869
2023-05-08T03:19:25.779Z,10.842
2023-05-08T03:22:22.852Z,10.818
2023-05-08T03:23:22.994Z,10.807
2023-05-08T03:24:23.176Z,10.853
2023-05-08T03:25:23.440Z,10.813
2023-05-08T03:26:23.696Z,10.786
2023-05-08T03:27:23.218Z,10.770
2023-05-08T03:28:23.405Z,10.767
2023-05-08T03:29:23.618Z,10.770
2023-05-08T03:30:22.785Z,10.767
2023-05-08T03:31:23.123Z,10.727
2023-05-08T03:32:23.635Z,10.682
2023-05-08T03:33:22.994Z,10.628
2023-05-08T03:34:23.181Z,10.618
2023-05-08T03:35:23.349Z,10.692
2023-05-08T03:36:23.563Z,10.631
2023-05-08T03:37:22.754Z,10.607
2023-05-08T03:38:22.957Z,10.639
2023-05-08T03:39:23.148Z,10.580
2023-05-08T03:40:23.626Z,10.575
2023-05-08T03:41:22.925Z,10.612
2023-05-08T03:42:23.211Z,10.610
2023-05-08T03:43:23.344Z,10.594
2023-05-08T03:44:23.501Z,10.607
2023-05-08T03:45:23.680Z,10.599
2023-05-08T03:46:22.939Z,10.588
2023-05-08T03:47:23.303Z,10.604
2023-05-08T03:48:23.691Z,10.575
2023-05-08T03:49:22.824Z,10.594
2023-05-08T03:50:23.430Z,10.596
2023-05-08T03:51:23.641Z,10.567
2023-05-08T03:52:22.815Z,10.580
2023-05-08T03:53:22.951Z,10.570
2023-05-08T03:54:23.170Z,10.559
2023-05-08T03:55:23.447Z,10.586
2023-05-08T03:56:25.926Z,10.620
2023-05-08T03:57:23.628Z,10.554
2023-05-08T03:58:22.885Z,10.489
2023-05-08T03:59:23.146Z,10.516
2023-05-08T04:00:23.862Z,10.516
2023-05-08T04:01:23.088Z,10.559
2023-05-08T04:02:23.817Z,10.546
2023-05-08T04:03:24.003Z,10.524
2023-05-08T04:04:23.724Z,10.484
2023-05-08T04:07:23.204Z,10.476
2023-05-08T04:08:23.561Z,10.516
2023-05-08T04:09:22.949Z,10.546
2023-05-08T04:10:23.605Z,10.500
2023-05-08T04:11:22.762Z,10.556
2023-05-08T04:12:23.005Z,10.505
2023-05-08T04:13:23.560Z,10.527
2023-05-08T04:14:23.050Z,10.559
2023-05-08T04:15:23.554Z,10.521
2023-05-08T04:16:22.973Z,10.476
2023-05-08T04:17:23.449Z,10.473
2023-05-08T04:18:22.676Z,10.516
2023-05-08T04:19:23.228Z,10.489
2023-05-08T04:20:23.667Z,10.473
2023-05-08T04:21:23.036Z,10.479
2023-05-08T04:22:23.304Z,10.487
2023-05-08T04:23:23.559Z,10.487
2023-05-08T04:24:22.755Z,10.516
2023-05-08T04:25:23.860Z,10.524
2023-05-08T04:26:25.546Z,10.556
2023-05-08T04:27:22.710Z,10.535
2023-05-08T04:28:23.137Z,10.505
2023-05-08T04:29:23.327Z,10.460
2023-05-08T04:30:23.592Z,10.457
2023-05-08T04:31:22.946Z,10.449
2023-05-08T04:32:23.561Z,10.495
2023-05-08T04:33:23.362Z,10.468
2023-05-08T04:34:22.667Z,10.500
2023-05-08T04:35:23.704Z,10.591
2023-05-08T04:36:23.081Z,10.674
2023-05-08T04:37:23.271Z,10.618
2023-05-08T04:38:23.511Z,10.570
2023-05-08T04:39:23.702Z,10.559
2023-05-08T04:40:22.959Z,10.527
2023-05-08T04:42:23.716Z,10.642
2023-05-08T04:43:23.064Z,10.658
2023-05-08T04:44:23.408Z,10.634
2023-05-08T04:45:23.927Z,10.594
2023-05-08T04:46:23.141Z,10.668
2023-05-08T04:47:23.769Z,10.594
2023-05-08T04:48:23.105Z,10.634
2023-05-08T04:49:23.262Z,10.679
2023-05-08T04:50:23.500Z,10.783
2023-05-08T04:51:22.744Z,10.829
2023-05-08T04:52:22.857Z,10.805
2023-05-08T04:53:23.087Z,10.815
2023-05-08T04:54:23.303Z,10.853
2023-05-08T04:55:23.875Z,10.895
2023-05-08T04:56:23.062Z,10.861
2023-05-08T04:57:23.246Z,10.842
2023-05-08T04:58:24.607Z,10.879
2023-05-08T04:59:22.811Z,10.842
2023-05-08T05:00:23.019Z,10.810
2023-05-08T05:01:23.555Z,10.895
2023-05-08T05:02:22.917Z,10.829
2023-05-08T05:03:23.762Z,10.813
2023-05-08T05:04:23.154Z,10.831
2023-05-08T05:05:23.854Z,10.797
2023-05-08T05:06:23.107Z,10.855
2023-05-08T05:07:23.379Z,10.823
2023-05-08T05:08:23.596Z,10.863
2023-05-08T05:09:22.756Z,10.877
2023-05-08T05:10:23.012Z,10.869
2023-05-08T05:11:23.218Z,10.909
2023-05-08T05:12:23.467Z,10.879
2023-05-08T05:13:24.090Z,10.965
2023-05-08T05:14:22.687Z,10.959
2023-05-08T05:15:23.511Z,11.045
2023-05-08T05:16:22.899Z,11.080
2023-05-08T05:17:23.687Z,11.082
2023-05-08T05:18:22.899Z,11.061
2023-05-08T05:19:23.035Z,11.045
2023-05-08T05:20:23.312Z,11.189
2023-05-08T05:21:23.523Z,11.056
2023-05-08T05:22:22.723Z,10.999
2023-05-08T05:23:23.002Z,11.021
2023-05-08T05:24:23.283Z,10.959
2023-05-08T05:25:24.072Z,11.015
2023-05-08T05:26:23.246Z,11.138
2023-05-08T05:27:26.407Z,11.122
2023-05-08T05:29:22.946Z,11.048
2023-05-08T05:30:23.487Z,10.965
2023-05-08T05:31:22.935Z,11.021
2023-05-08T05:32:23.561Z,11.237
2023-05-08T05:33:22.930Z,11.098
2023-05-08T05:34:23.149Z,11.146
2023-05-08T05:35:25.446Z,11.040
2023-05-08T05:36:22.903Z,11.192
2023-05-08T05:37:23.078Z,11.264
2023-05-08T05:38:23.334Z,11.141
2023-05-08T05:39:23.586Z,11.210
2023-05-08T05:40:22.793Z,11.173
2023-05-08T05:41:23.044Z,11.162
2023-05-08T05:42:23.253Z,11.080
2023-05-08T05:43:23.517Z,11.005
2023-05-08T05:44:22.760Z,11.216
2023-05-08T05:45:23.437Z,11.074
2023-05-08T05:46:23.232Z,11.261
2023-05-08T05:47:23.961Z,11.293
2023-05-08T05:48:23.349Z,11.440
2023-05-08T05:49:23.616Z,11.272
2023-05-08T05:50:22.754Z,11.558
2023-05-08T05:51:23.027Z,11.790
2023-05-08T05:52:23.250Z,12.028
2023-05-08T05:53:23.486Z,12.108
2023-05-08T05:54:23.932Z,11.958
2023-05-08T05:56:23.410Z,11.929
2023-05-08T05:57:23.667Z,11.841
2023-05-08T05:58:22.833Z,11.899
2023-05-08T05:59:23.004Z,12.028
2023-05-08T06:00:23.233Z,11.915
2023-05-08T06:01:23.425Z,12.204
2023-05-08T06:02:24.402Z,11.774
2023-05-08T06:03:23.765Z,12.020
2023-05-08T06:04:23.460Z,12.028
2023-05-08T06:06:23.569Z,12.308
2023-05-08T06:07:22.749Z,12.313
2023-05-08T06:08:23.016Z,12.241
2023-05-08T06:09:23.243Z,12.388
2023-05-08T06:10:23.454Z,12.535
2023-05-08T06:11:23.633Z,12.292
2023-05-08T06:12:22.888Z,12.369
2023-05-08T06:13:23.397Z,12.177
2023-05-08T06:14:22.914Z,12.028
2023-05-08T06:15:23.595Z,11.835
2023-05-08T06:16:22.885Z,11.950
2023-05-08T06:17:23.249Z,11.985
2023-05-08T06:18:23.597Z,12.086
2023-05-08T06:19:22.771Z,12.209
2023-05-08T06:20:24.411Z,12.353
2023-05-08T06:21:23.540Z,12.444
2023-05-08T06:22:22.972Z,12.522
2023-05-08T06:23:23.164Z,12.698
2023-05-08T06:24:23.390Z,12.636
2023-05-08T06:25:23.991Z,12.954
2023-05-08T06:26:26.289Z,13.088
2023-05-08T06:28:22.731Z,12.706
2023-05-08T06:29:23.054Z,12.441
2023-05-08T06:30:23.312Z,12.300
2023-05-08T06:31:23.901Z,12.522
2023-05-08T06:32:23.889Z,12.610
2023-05-08T06:33:24.683Z,12.749
2023-05-08T06:34:23.405Z,12.289
2023-05-08T06:35:23.847Z,12.492
2023-05-08T06:36:23.073Z,12.612
2023-05-08T06:37:23.288Z,12.631
2023-05-08T06:38:23.496Z,12.716
2023-05-08T06:39:22.729Z,12.620
2023-05-08T06:40:22.899Z,12.599
2023-05-08T06:41:25.339Z,12.775
2023-05-08T06:42:23.542Z,12.810
2023-05-08T06:43:22.738Z,13.162
2023-05-08T06:44:22.969Z,12.775
2023-05-08T06:45:23.605Z,12.879
2023-05-08T06:46:23.084Z,12.943
2023-05-08T06:47:23.553Z,12.805
2023-05-08T06:48:22.861Z,12.813
2023-05-08T06:49:23.338Z,12.741
2023-05-08T06:50:23.546Z,12.818
2023-05-08T06:51:22.902Z,12.917
2023-05-08T06:52:23.113Z,12.711
2023-05-08T06:53:23.538Z,13.219
2023-05-08T06:54:22.754Z,13.347
2023-05-08T06:55:23.267Z,13.267
2023-05-08T06:56:23.500Z,12.954
2023-05-08T06:57:23.624Z,13.373
2023-05-08T06:58:22.830Z,13.683
2023-05-08T06:59:23.035Z,13.496
2023-05-08T07:00:23.274Z,13.261
2023-05-08T07:01:23.999Z,13.272
2023-05-08T07:02:23.596Z,13.077
2023-05-08T07:03:23.187Z,13.275
2023-05-08T07:04:23.633Z,13.640
2023-05-08T07:05:23.914Z,13.552
2023-05-08T07:06:23.086Z,13.937
2023-05-08T07:07:23.305Z,13.857
2023-05-08T07:08:23.538Z,13.614
2023-05-08T07:09:23.262Z,14.396
2023-05-08T07:10:23.490Z,14.644
2023-05-08T07:11:22.682Z,14.620
2023-05-08T07:12:22.884Z,14.223
2023-05-08T07:13:23.567Z,14.324
2023-05-08T07:14:23.014Z,13.779
2023-05-08T07:15:32.464Z,14.260
2023-05-08T07:17:22.982Z,14.869
2023-05-08T07:18:23.381Z,15.109
2023-05-08T07:19:26.243Z,14.949
2023-05-08T07:22:23.303Z,14.129
2023-05-08T07:23:23.598Z,14.898
2023-05-08T07:24:22.791Z,14.436
2023-05-08T07:25:23.570Z,14.658
2023-05-08T07:26:22.820Z,15.224
2023-05-08T07:27:23.084Z,15.106
2023-05-08T07:28:23.277Z,14.490
2023-05-08T07:29:23.546Z,14.834
2023-05-08T07:30:22.840Z,15.002
2023-05-08T07:31:23.383Z,14.471
2023-05-08T07:32:22.659Z,14.767
2023-05-08T07:33:22.990Z,14.682
2023-05-08T07:34:23.239Z,14.757
2023-05-08T07:35:23.999Z,14.954
2023-05-08T07:36:23.284Z,14.556
2023-05-08T07:37:23.516Z,15.066
2023-05-08T07:38:22.676Z,15.098
2023-05-08T07:39:22.863Z,14.607
2023-05-08T07:40:23.253Z,14.634
2023-05-08T07:41:23.773Z,14.671
2023-05-08T07:42:23.302Z,14.711
2023-05-08T07:43:23.643Z,15.181
2023-05-08T07:44:22.898Z,15.536
2023-05-08T07:45:23.615Z,15.432
2023-05-08T07:46:23.102Z,15.448
2023-05-08T07:47:23.920Z,15.699
2023-05-08T07:49:23.589Z,15.016
2023-05-08T07:50:22.806Z,14.682
2023-05-08T07:51:22.996Z,14.572
2023-05-08T07:52:23.226Z,14.960
2023-05-08T07:53:23.463Z,14.719
2023-05-08T07:54:23.734Z,14.543
2023-05-08T07:55:22.992Z,14.847
2023-05-08T07:56:23.209Z,14.717
2023-05-08T07:57:23.463Z,15.163
2023-05-08T07:58:24.599Z,15.098
2023-05-08T08:00:23.552Z,15.424
2023-05-08T08:01:22.787Z,15.584
2023-05-08T08:02:23.289Z,15.181
2023-05-08T08:03:23.183Z,15.534
2023-05-08T08:04:24.797Z,15.136
2023-05-08T08:05:23.501Z,15.208
2023-05-08T08:06:22.789Z,15.016
2023-05-08T08:07:23.051Z,15.213
2023-05-08T08:08:23.324Z,15.483
2023-05-08T08:09:23.516Z,15.496
2023-05-08T08:11:23.322Z,15.331
2023-05-08T08:12:23.606Z,15.088
2023-05-08T08:13:23.256Z,15.365
2023-05-08T08:14:23.251Z,15.430
2023-05-08T08:15:23.979Z,15.312
2023-05-08T08:16:23.331Z,15.320
2023-05-08T08:17:25.507Z,15.841
2023-05-08T08:18:23.294Z,16.263
2023-05-08T08:19:23.525Z,16.081
2023-05-08T08:20:22.705Z,15.568
2023-05-08T08:21:23.066Z,15.750
2023-05-08T08:22:23.298Z,16.105
2023-05-08T08:23:23.687Z,15.357
2023-05-08T08:24:22.873Z,15.285
2023-05-08T08:25:23.072Z,15.176
2023-05-08T08:26:23.378Z,15.058
2023-05-08T08:27:23.618Z,15.550
2023-05-08T08:28:22.867Z,15.488
2023-05-08T08:29:23.090Z,16.159
2023-05-08T08:30:27.787Z,16.375
2023-05-08T08:31:23.299Z,17.018
2023-05-08T08:34:23.685Z,16.690
2023-05-08T08:35:23.105Z,16.204
2023-05-08T08:36:23.264Z,16.954
2023-05-08T08:37:23.041Z,17.443
2023-05-08T08:38:23.322Z,17.678
2023-05-08T08:39:24.486Z,17.208
2023-05-08T08:40:22.752Z,17.443
2023-05-08T08:41:23.015Z,17.374
2023-05-08T08:42:23.287Z,17.766
2023-05-08T08:43:23.591Z,17.686
2023-05-08T08:44:22.845Z,16.968
2023-05-08T08:45:23.127Z,15.843
2023-05-08T08:46:23.632Z,16.602
2023-05-08T08:47:23.142Z,15.924
2023-05-08T08:48:22.739Z,16.044
2023-05-08T08:49:23.079Z,15.811
2023-05-08T08:50:23.963Z,15.424
2023-05-08T08:51:23.231Z,15.673
2023-05-08T08:52:23.542Z,15.835
2023-05-08T08:53:22.800Z,16.188
2023-05-08T08:54:23.026Z,16.727
2023-05-08T08:55:23.950Z,17.032
2023-05-08T08:56:23.112Z,17.232
2023-05-08T08:57:23.383Z,16.434
2023-05-08T08:58:23.660Z,15.713
2023-05-08T08:59:22.944Z,15.659
2023-05-08T09:00:23.167Z,16.044
2023-05-08T09:01:23.730Z,15.793
2023-05-08T09:02:23.999Z,15.843
2023-05-08T09:03:24.071Z,16.319
2023-05-08T09:04:23.394Z,16.706
2023-05-08T09:06:23.501Z,16.463
2023-05-08T09:07:22.777Z,15.977
2023-05-08T09:08:22.938Z,16.364
2023-05-08T09:09:23.611Z,16.666
2023-05-08T09:10:22.874Z,17.235
2023-05-08T09:11:23.214Z,17.563
2023-05-08T09:12:23.636Z,17.379
2023-05-08T09:13:25.060Z,17.438
2023-05-08T09:14:24.927Z,16.669
2023-05-08T09:16:24.090Z,16.880
2023-05-08T09:17:23.608Z,17.518
2023-05-08T09:18:22.923Z,18.137
2023-05-08T09:19:28.934Z,17.817
2023-05-08T09:21:23.356Z,18.511
2023-05-08T09:22:23.606Z,19.016
2023-05-08T09:23:22.882Z,19.550
2023-05-08T09:24:23.076Z,19.771
2023-05-08T09:25:23.212Z,19.587
2023-05-08T09:26:23.691Z,19.545
2023-05-08T09:27:22.913Z,19.625
2023-05-08T09:28:23.190Z,19.483
2023-05-08T09:29:23.540Z,19.085
2023-05-08T09:30:22.834Z,18.949
2023-05-08T09:31:23.237Z,19.358
2023-05-08T09:32:23.663Z,19.451
2023-05-08T09:33:22.970Z,19.446
2023-05-08T09:34:23.230Z,19.665
2023-05-08T09:35:23.878Z,19.659
2023-05-08T09:36:23.104Z,20.148
2023-05-08T09:37:23.333Z,18.810
2023-05-08T09:38:23.601Z,18.901
2023-05-08T09:39:23.627Z,17.950
2023-05-08T09:40:23.103Z,17.721
2023-05-08T09:41:23.442Z,17.833
2023-05-08T09:42:23.690Z,16.623
2023-05-08T09:43:22.910Z,16.767
2023-05-08T09:44:23.118Z,16.647
2023-05-08T09:45:23.671Z,17.098
2023-05-08T09:46:23.532Z,16.997
2023-05-08T09:49:22.954Z,17.387
2023-05-08T09:50:23.621Z,17.171
2023-05-08T09:51:22.835Z,17.141
2023-05-08T09:52:23.114Z,17.384
2023-05-08T09:53:23.570Z,17.454
2023-05-08T09:54:22.886Z,17.838
2023-05-08T09:55:23.177Z,17.123
2023-05-08T09:56:23.447Z,17.472
2023-05-08T09:57:22.841Z,16.850
2023-05-08T09:58:23.100Z,17.277
2023-05-08T09:59:23.330Z,17.507
2023-05-08T10:00:24.039Z,17.539
2023-05-08T10:01:23.727Z,17.496
2023-05-08T10:02:23.825Z,17.301
2023-05-08T10:03:23.078Z,17.563
2023-05-08T10:04:23.531Z,17.785
2023-05-08T10:07:22.912Z,17.659
2023-05-08T10:08:23.261Z,17.438
2023-05-08T10:09:23.477Z,17.889
2023-05-08T10:10:24.021Z,18.383
2023-05-08T10:11:23.277Z,18.183
2023-05-08T10:12:23.473Z,17.950
2023-05-08T10:13:22.954Z,18.041
2023-05-08T10:14:23.585Z,18.356
2023-05-08T10:15:22.900Z,19.029
2023-05-08T10:16:23.212Z,18.914
2023-05-08T10:17:24.553Z,18.767
2023-05-08T10:18:22.986Z,19.083
2023-05-08T10:19:23.173Z,19.654
2023-05-08T10:20:27.466Z,20.193
2023-05-08T10:22:23.003Z,20.089
2023-05-08T10:23:23.484Z,20.223
2023-05-08T10:24:22.858Z,20.386
2023-05-08T10:25:23.360Z,20.650
2023-05-08T10:26:23.644Z,20.458
2023-05-08T10:27:23.164Z,20.719
2023-05-08T10:28:23.507Z,19.355
2023-05-08T10:29:22.829Z,19.849
2023-05-08T10:30:23.772Z,19.932
2023-05-08T10:31:23.189Z,20.858
2023-05-08T10:32:23.767Z,20.284
2023-05-08T10:33:23.256Z,20.423
2023-05-08T10:34:24.202Z,21.176
2023-05-08T10:37:23.050Z,18.597
2023-05-08T10:38:23.350Z,18.319
2023-05-08T10:39:23.683Z,18.415
2023-05-08T10:40:22.987Z,17.683
2023-05-08T10:41:23.297Z,18.848
2023-05-08T10:42:23.674Z,19.310
2023-05-08T10:43:22.942Z,20.068
2023-05-08T10:44:23.186Z,20.658
2023-05-08T10:45:23.393Z,19.422
2023-05-08T10:46:23.873Z,19.144
2023-05-08T10:47:23.700Z,19.475
2023-05-08T10:50:23.976Z,19.018
2023-05-08T10:51:23.182Z,19.475
2023-05-08T10:52:23.484Z,18.607
2023-05-08T10:53:23.701Z,19.077
2023-05-08T10:54:23.048Z,19.168
2023-05-08T10:55:23.138Z,18.532
2023-05-08T10:56:23.348Z,19.091
2023-05-08T10:57:23.599Z,19.446
2023-05-08T10:58:22.789Z,20.241
2023-05-08T10:59:23.098Z,20.653
2023-05-08T11:00:23.912Z,20.893
2023-05-08T11:01:23.483Z,21.438
2023-05-08T11:02:23.424Z,21.083
2023-05-08T11:03:35.625Z,19.678
2023-05-08T11:04:23.453Z,19.585
2023-05-08T11:05:22.866Z,19.817
2023-05-08T11:06:23.152Z,20.442
2023-05-08T11:07:23.366Z,21.003
2023-05-08T11:08:23.602Z,21.539
2023-05-08T11:09:22.934Z,21.659
2023-05-08T11:10:23.438Z,21.032
2023-05-08T11:11:23.698Z,21.254
2023-05-08T11:12:23.018Z,21.032
2023-05-08T11:13:23.527Z,19.371
2023-05-08T11:14:23.003Z,18.783
2023-05-08T11:15:24.628Z,19.382
2023-05-08T11:16:22.935Z,19.870
2023-05-08T11:17:23.252Z,19.638
2023-05-08T11:18:22.864Z,19.398
2023-05-08T11:19:22.997Z,19.168
2023-05-08T11:20:23.805Z,19.638
2023-05-08T11:21:23.164Z,20.594
2023-05-08T11:22:23.566Z,21.221
2023-05-08T11:23:22.763Z,19.667
2023-05-08T11:24:23.025Z,20.108
2023-05-08T11:25:23.240Z,20.725
2023-05-08T11:26:23.475Z,21.291
2023-05-08T11:27:22.819Z,21.601
2023-05-08T11:28:23.045Z,20.834
2023-05-08T11:29:23.235Z,21.489
2023-05-08T11:30:23.747Z,21.251
2023-05-08T11:31:23.245Z,21.189
2023-05-08T11:32:24.347Z,21.748
2023-05-08T11:33:23.313Z,21.838
2023-05-08T11:34:23.600Z,22.111
2023-05-08T11:35:22.790Z,22.298
2023-05-08T11:36:22.978Z,21.724
2023-05-08T11:37:23.331Z,21.587
2023-05-08T11:38:23.598Z,20.829
2023-05-08T11:39:22.869Z,20.920
2023-05-08T11:40:23.572Z,20.017
2023-05-08T11:41:22.832Z,20.044
2023-05-08T11:42:23.083Z,19.641
2023-05-08T11:43:23.434Z,18.658
2023-05-08T11:44:22.793Z,18.287
2023-05-08T11:45:22.943Z,18.589
2023-05-08T11:46:23.417Z,18.610
2023-05-08T11:47:23.231Z,18.829
2023-05-08T11:48:23.770Z,18.597
2023-05-08T11:49:32.226Z,19.139
2023-05-08T11:51:23.614Z,19.294
2023-05-08T11:52:22.811Z,19.723
2023-05-08T11:53:23.069Z,19.868
2023-05-08T11:54:23.309Z,20.161
2023-05-08T11:55:23.549Z,20.135
2023-05-08T11:56:22.825Z,19.897
2023-05-08T11:57:23.041Z,19.243
2023-05-08T11:58:23.249Z,18.917
2023-05-08T11:59:23.619Z,18.938
2023-05-08T12:00:23.539Z,18.538
2023-05-08T12:01:22.942Z,18.677
2023-05-08T12:02:23.453Z,18.492
2023-05-08T12:03:23.900Z,18.343
2023-05-08T12:04:24.028Z,18.912
2023-05-08T12:05:23.563Z,19.181
2023-05-08T12:07:23.266Z,19.165
2023-05-08T12:08:23.531Z,19.264
2023-05-08T12:09:22.907Z,19.518
2023-05-08T12:10:24.544Z,19.825
2023-05-08T12:11:22.752Z,20.105
2023-05-08T12:12:22.987Z,19.510
2023-05-08T12:13:23.557Z,19.462
2023-05-08T12:14:23.415Z,19.702
2023-05-08T12:15:24.091Z,19.553
2023-05-08T12:16:23.285Z,19.144
2023-05-08T12:17:23.115Z,18.837
2023-05-08T12:18:23.702Z,18.249
2023-05-08T12:19:23.184Z,18.837
2023-05-08T12:20:24.646Z,19.051
2023-05-08T12:21:23.586Z,18.719
2023-05-08T12:22:22.795Z,19.368
2023-05-08T12:23:23.056Z,19.374
2023-05-08T12:24:23.753Z,18.992
2023-05-08T12:25:22.757Z,18.733
2023-05-08T12:26:22.975Z,19.176
2023-05-08T12:27:23.313Z,19.411
2023-05-08T12:28:23.574Z,19.585
2023-05-08T12:29:23.087Z,19.582
2023-05-08T12:30:24.310Z,19.558
2023-05-08T12:31:23.458Z,19.235
2023-05-08T12:32:22.960Z,19.344
2023-05-08T12:33:23.797Z,19.104
2023-05-08T12:34:23.518Z,19.328
2023-05-08T12:35:22.753Z,19.777
2023-05-08T12:36:22.920Z,20.725
2023-05-08T12:37:23.133Z,20.642
2023-05-08T12:38:23.475Z,20.081
2023-05-08T12:39:24.087Z,20.231
2023-05-08T12:40:23.043Z,20.930
2023-05-08T12:41:23.282Z,21.304
2023-05-08T12:42:23.553Z,21.195
2023-05-08T12:43:22.783Z,20.970
2023-05-08T12:44:23.122Z,21.203
2023-05-08T12:45:23.392Z,21.643
2023-05-08T12:46:25.004Z,21.659
2023-05-08T12:47:23.328Z,21.595
2023-05-08T12:48:22.798Z,21.566
2023-05-08T12:49:23.052Z,21.440
2023-05-08T12:50:23.846Z,21.459
2023-05-08T12:51:23.083Z,21.788
2023-05-08T12:52:23.470Z,21.886
2023-05-08T12:53:22.715Z,22.239
2023-05-08T12:54:22.979Z,22.581
2023-05-08T12:55:23.238Z,21.203
2023-05-08T12:56:23.506Z,21.216
2023-05-08T12:57:22.768Z,21.400
2023-05-08T12:58:23.092Z,21.822
2023-05-08T12:59:23.399Z,22.410
2023-05-08T13:00:24.098Z,22.501
2023-05-08T13:01:23.429Z,22.960
2023-05-08T13:02:23.146Z,21.953
2023-05-08T13:03:23.560Z,21.958
2023-05-08T13:04:23.810Z,22.666
2023-05-08T13:05:23.543Z,23.342
2023-05-08T13:07:23.054Z,23.700
2023-05-08T13:08:23.277Z,23.206